sensor_id;sensor_type;location;lat;lon;timestamp;P1;durP1;ratioP1;P2;durP2;ratioP2
2326;SDS011;1174;51.588;7.328;2023-04-03T00:01:46;5.40;;;3.70;;
2326;SDS011;1174;51.588;7.328;2023-04-03T00:04:13;9.50;;;3.70;;
2326;SDS011;1174;51.588;7.328;2023-04-03T00:06:41;4.40;;;3.73;;
2326;SDS011;1174;51.588;7.328;2023-04-03T00:09:08;10.03;;;4.47;;
2326;SDS011;1174;51.588;7.328;2023-04-03T00:11:35;6.80;;;4.47;;
2326;SDS011;1174;51.588;7.328;2023-04-03T00:14:02;6.33;;;4.10;;
2326;SDS011;1174;51.588;7.328;2023-04-03T00:16:29;4.80;;;3.43;;
2326;SDS011;1174;51.588;7.328;2023-04-03T00:18:56;4.17;;;3.30;;
2326;SDS011;1174;51.588;7.328;2023-04-03T00:21:23;3.73;;;3.33;;
2326;SDS011;1174;51.588;7.328;2023-04-03T00:23:52;8.00;;;3.30;;
2326;SDS011;1174;51.588;7.328;2023-04-03T00:26:19;6.13;;;3.17;;
2326;SDS011;1174;51.588;7.328;2023-04-03T00:28:46;6.80;;;4.53;;
2326;SDS011;1174;51.588;7.328;2023-04-03T00:31:14;3.93;;;2.83;;
2326;SDS011;1174;51.588;7.328;2023-04-03T00:33:41;5.27;;;3.67;;
2326;SDS011;1174;51.588;7.328;2023-04-03T00:36:09;5.97;;;3.50;;
2326;SDS011;1174;51.588;7.328;2023-04-03T00:38:36;4.70;;;3.83;;
2326;SDS011;1174;51.588;7.328;2023-04-03T00:41:05;3.23;;;2.80;;
2326;SDS011;1174;51.588;7.328;2023-04-03T00:43:32;2.10;;;1.90;;
2326;SDS011;1174;51.588;7.328;2023-04-03T00:45:59;2.20;;;2.00;;
2326;SDS011;1174;51.588;7.328;2023-04-03T00:48:27;1.73;;;1.60;;
2326;SDS011;1174;51.588;7.328;2023-04-03T00:50:57;2.03;;;1.50;;
2326;SDS011;1174;51.588;7.328;2023-04-03T00:53:25;6.60;;;1.80;;
2326;SDS011;1174;51.588;7.328;2023-04-03T00:55:56;2.73;;;1.20;;
2326;SDS011;1174;51.588;7.328;2023-04-03T00:58:27;2.07;;;1.73;;
2326;SDS011;1174;51.588;7.328;2023-04-03T01:00:59;3.23;;;1.90;;
2326;SDS011;1174;51.588;7.328;2023-04-03T01:03:32;1.83;;;1.17;;
2326;SDS011;1174;51.588;7.328;2023-04-03T01:06:00;1.40;;;1.30;;
2326;SDS011;1174;51.588;7.328;2023-04-03T01:08:27;2.50;;;1.50;;
2326;SDS011;1174;51.588;7.328;2023-04-03T01:10:54;2.43;;;1.10;;
2326;SDS011;1174;51.588;7.328;2023-04-03T01:13:22;1.43;;;1.33;;
2326;SDS011;1174;51.588;7.328;2023-04-03T01:15:53;5.20;;;1.83;;
2326;SDS011;1174;51.588;7.328;2023-04-03T01:18:21;1.20;;;1.07;;
2326;SDS011;1174;51.588;7.328;2023-04-03T01:20:57;3.50;;;1.03;;
2326;SDS011;1174;51.588;7.328;2023-04-03T01:23:53;1.23;;;1.13;;
2326;SDS011;1174;51.588;7.328;2023-04-03T01:26:44;1.60;;;1.30;;
2326;SDS011;1174;51.588;7.328;2023-04-03T01:29:11;14.13;;;1.70;;
2326;SDS011;1174;51.588;7.328;2023-04-03T01:31:47;1.03;;;0.90;;
2326;SDS011;1174;51.588;7.328;2023-04-03T01:34:15;1.33;;;1.13;;
2326;SDS011;1174;51.588;7.328;2023-04-03T01:36:42;2.17;;;1.30;;
2326;SDS011;1174;51.588;7.328;2023-04-03T01:39:09;4.70;;;2.23;;
2326;SDS011;1174;51.588;7.328;2023-04-03T01:41:37;1.13;;;1.03;;
2326;SDS011;1174;51.588;7.328;2023-04-03T01:44:04;2.47;;;1.50;;
2326;SDS011;1174;51.588;7.328;2023-04-03T01:46:31;3.80;;;1.57;;
2326;SDS011;1174;51.588;7.328;2023-04-03T01:48:59;2.47;;;1.47;;
2326;SDS011;1174;51.588;7.328;2023-04-03T01:51:27;0.97;;;0.80;;
2326;SDS011;1174;51.588;7.328;2023-04-03T01:53:54;2.33;;;1.40;;
2326;SDS011;1174;51.588;7.328;2023-04-03T01:56:21;2.20;;;1.20;;
2326;SDS011;1174;51.588;7.328;2023-04-03T01:58:48;2.20;;;1.20;;
2326;SDS011;1174;51.588;7.328;2023-04-03T02:01:15;8.80;;;2.00;;
2326;SDS011;1174;51.588;7.328;2023-04-03T02:03:42;8.63;;;1.23;;
2326;SDS011;1174;51.588;7.328;2023-04-03T02:06:11;4.20;;;1.60;;
2326;SDS011;1174;51.588;7.328;2023-04-03T02:08:38;1.50;;;1.00;;
2326;SDS011;1174;51.588;7.328;2023-04-03T02:11:05;1.30;;;1.10;;
2326;SDS011;1174;51.588;7.328;2023-04-03T02:13:32;1.80;;;1.30;;
2326;SDS011;1174;51.588;7.328;2023-04-03T02:15:59;1.30;;;1.20;;
2326;SDS011;1174;51.588;7.328;2023-04-03T02:18:32;11.00;;;1.40;;
2326;SDS011;1174;51.588;7.328;2023-04-03T02:20:59;3.20;;;1.17;;
2326;SDS011;1174;51.588;7.328;2023-04-03T02:23:28;2.00;;;1.80;;
2326;SDS011;1174;51.588;7.328;2023-04-03T02:26:01;1.80;;;0.93;;
2326;SDS011;1174;51.588;7.328;2023-04-03T02:28:30;1.20;;;1.10;;
2326;SDS011;1174;51.588;7.328;2023-04-03T02:30:57;5.83;;;1.07;;
2326;SDS011;1174;51.588;7.328;2023-04-03T02:33:24;1.00;;;0.90;;
2326;SDS011;1174;51.588;7.328;2023-04-03T02:35:53;1.57;;;1.30;;
2326;SDS011;1174;51.588;7.328;2023-04-03T02:38:21;1.00;;;0.83;;
2326;SDS011;1174;51.588;7.328;2023-04-03T02:40:50;2.07;;;1.20;;
2326;SDS011;1174;51.588;7.328;2023-04-03T02:43:17;1.30;;;0.90;;
2326;SDS011;1174;51.588;7.328;2023-04-03T02:45:44;1.00;;;0.70;;
2326;SDS011;1174;51.588;7.328;2023-04-03T02:48:11;1.80;;;1.40;;
2326;SDS011;1174;51.588;7.328;2023-04-03T02:50:39;1.70;;;1.00;;
2326;SDS011;1174;51.588;7.328;2023-04-03T02:53:06;1.20;;;1.10;;
2326;SDS011;1174;51.588;7.328;2023-04-03T02:55:33;0.97;;;0.77;;
2326;SDS011;1174;51.588;7.328;2023-04-03T02:58:02;1.30;;;1.10;;
2326;SDS011;1174;51.588;7.328;2023-04-03T03:00:29;3.77;;;1.47;;
2326;SDS011;1174;51.588;7.328;2023-04-03T03:02:56;2.03;;;1.13;;
2326;SDS011;1174;51.588;7.328;2023-04-03T03:05:23;1.30;;;1.00;;
2326;SDS011;1174;51.588;7.328;2023-04-03T03:07:52;1.33;;;1.10;;
2326;SDS011;1174;51.588;7.328;2023-04-03T03:10:20;2.77;;;1.27;;
2326;SDS011;1174;51.588;7.328;2023-04-03T03:12:47;2.13;;;1.57;;
2326;SDS011;1174;51.588;7.328;2023-04-03T03:15:15;1.23;;;1.13;;
2326;SDS011;1174;51.588;7.328;2023-04-03T03:17:44;2.50;;;1.33;;
2326;SDS011;1174;51.588;7.328;2023-04-03T03:20:12;7.67;;;1.67;;
2326;SDS011;1174;51.588;7.328;2023-04-03T03:22:40;1.50;;;1.30;;
2326;SDS011;1174;51.588;7.328;2023-04-03T03:25:07;1.50;;;1.40;;
2326;SDS011;1174;51.588;7.328;2023-04-03T03:27:35;1.60;;;1.10;;
2326;SDS011;1174;51.588;7.328;2023-04-03T03:30:02;2.07;;;1.43;;
2326;SDS011;1174;51.588;7.328;2023-04-03T03:32:31;1.10;;;0.90;;
2326;SDS011;1174;51.588;7.328;2023-04-03T03:34:58;7.20;;;1.73;;
2326;SDS011;1174;51.588;7.328;2023-04-03T03:37:24;3.40;;;1.10;;
2326;SDS011;1174;51.588;7.328;2023-04-03T03:39:52;1.90;;;1.57;;
2326;SDS011;1174;51.588;7.328;2023-04-03T03:42:19;2.37;;;1.63;;
2326;SDS011;1174;51.588;7.328;2023-04-03T03:44:47;1.17;;;1.07;;
2326;SDS011;1174;51.588;7.328;2023-04-03T03:47:14;7.23;;;1.37;;
2326;SDS011;1174;51.588;7.328;2023-04-03T03:49:42;1.50;;;1.40;;
2326;SDS011;1174;51.588;7.328;2023-04-03T03:52:09;1.37;;;1.10;;
2326;SDS011;1174;51.588;7.328;2023-04-03T03:54:36;1.23;;;1.13;;
2326;SDS011;1174;51.588;7.328;2023-04-03T03:57:03;4.50;;;1.20;;
2326;SDS011;1174;51.588;7.328;2023-04-03T03:59:31;2.53;;;1.20;;
2326;SDS011;1174;51.588;7.328;2023-04-03T04:01:58;2.10;;;1.37;;
2326;SDS011;1174;51.588;7.328;2023-04-03T04:04:25;4.50;;;1.50;;
2326;SDS011;1174;51.588;7.328;2023-04-03T04:06:53;1.97;;;1.30;;
2326;SDS011;1174;51.588;7.328;2023-04-03T04:09:20;2.13;;;1.00;;
2326;SDS011;1174;51.588;7.328;2023-04-03T04:11:47;5.07;;;1.87;;
2326;SDS011;1174;51.588;7.328;2023-04-03T04:14:15;1.60;;;1.33;;
2326;SDS011;1174;51.588;7.328;2023-04-03T04:16:42;4.13;;;1.53;;
2326;SDS011;1174;51.588;7.328;2023-04-03T04:19:09;6.17;;;2.40;;
2326;SDS011;1174;51.588;7.328;2023-04-03T04:21:36;2.70;;;1.93;;
2326;SDS011;1174;51.588;7.328;2023-04-03T04:24:04;6.93;;;1.63;;
2326;SDS011;1174;51.588;7.328;2023-04-03T04:26:34;8.13;;;1.80;;
2326;SDS011;1174;51.588;7.328;2023-04-03T04:29:01;2.30;;;1.50;;
2326;SDS011;1174;51.588;7.328;2023-04-03T04:31:28;3.00;;;1.80;;
2326;SDS011;1174;51.588;7.328;2023-04-03T04:33:55;1.20;;;1.10;;
2326;SDS011;1174;51.588;7.328;2023-04-03T04:36:22;1.10;;;0.80;;
2326;SDS011;1174;51.588;7.328;2023-04-03T04:38:49;1.60;;;1.30;;
2326;SDS011;1174;51.588;7.328;2023-04-03T04:41:19;1.60;;;1.20;;
2326;SDS011;1174;51.588;7.328;2023-04-03T04:43:47;1.07;;;0.97;;
2326;SDS011;1174;51.588;7.328;2023-04-03T04:46:14;11.33;;;1.50;;
2326;SDS011;1174;51.588;7.328;2023-04-03T04:48:41;6.90;;;1.90;;
2326;SDS011;1174;51.588;7.328;2023-04-03T04:51:09;5.80;;;3.07;;
2326;SDS011;1174;51.588;7.328;2023-04-03T04:53:38;3.93;;;3.17;;
2326;SDS011;1174;51.588;7.328;2023-04-03T04:56:06;5.50;;;2.40;;
2326;SDS011;1174;51.588;7.328;2023-04-03T04:58:35;1.50;;;1.37;;
2326;SDS011;1174;51.588;7.328;2023-04-03T05:01:03;6.63;;;2.20;;
2326;SDS011;1174;51.588;7.328;2023-04-03T05:03:32;4.60;;;1.63;;
2326;SDS011;1174;51.588;7.328;2023-04-03T05:05:59;2.70;;;1.97;;
2326;SDS011;1174;51.588;7.328;2023-04-03T05:08:26;2.97;;;1.83;;
2326;SDS011;1174;51.588;7.328;2023-04-03T05:10:55;1.40;;;1.30;;
2326;SDS011;1174;51.588;7.328;2023-04-03T05:13:21;2.13;;;1.70;;
2326;SDS011;1174;51.588;7.328;2023-04-03T05:15:50;2.90;;;1.80;;
2326;SDS011;1174;51.588;7.328;2023-04-03T05:18:17;2.27;;;1.93;;
2326;SDS011;1174;51.588;7.328;2023-04-03T05:20:44;4.73;;;1.10;;
2326;SDS011;1174;51.588;7.328;2023-04-03T05:23:11;5.83;;;1.57;;
2326;SDS011;1174;51.588;7.328;2023-04-03T05:25:38;2.27;;;1.43;;
2326;SDS011;1174;51.588;7.328;2023-04-03T05:28:05;1.57;;;1.47;;
2326;SDS011;1174;51.588;7.328;2023-04-03T05:30:32;2.10;;;1.60;;
2326;SDS011;1174;51.588;7.328;2023-04-03T05:33:01;21.97;;;1.80;;
2326;SDS011;1174;51.588;7.328;2023-04-03T05:35:28;2.07;;;1.00;;
2326;SDS011;1174;51.588;7.328;2023-04-03T05:37:55;6.80;;;1.67;;
2326;SDS011;1174;51.588;7.328;2023-04-03T05:40:24;8.57;;;2.27;;
2326;SDS011;1174;51.588;7.328;2023-04-03T05:42:51;1.97;;;1.70;;
2326;SDS011;1174;51.588;7.328;2023-04-03T05:45:18;4.57;;;1.70;;
2326;SDS011;1174;51.588;7.328;2023-04-03T05:47:45;1.90;;;1.40;;
2326;SDS011;1174;51.588;7.328;2023-04-03T05:50:13;1.53;;;1.30;;
2326;SDS011;1174;51.588;7.328;2023-04-03T05:52:42;4.83;;;1.87;;
2326;SDS011;1174;51.588;7.328;2023-04-03T05:55:11;2.07;;;1.57;;
2326;SDS011;1174;51.588;7.328;2023-04-03T05:57:38;2.57;;;1.97;;
2326;SDS011;1174;51.588;7.328;2023-04-03T06:00:06;4.97;;;1.23;;
2326;SDS011;1174;51.588;7.328;2023-04-03T06:02:35;2.00;;;1.90;;
2326;SDS011;1174;51.588;7.328;2023-04-03T06:05:02;3.20;;;2.10;;
2326;SDS011;1174;51.588;7.328;2023-04-03T06:07:30;1.87;;;1.20;;
2326;SDS011;1174;51.588;7.328;2023-04-03T06:09:58;6.20;;;2.07;;
2326;SDS011;1174;51.588;7.328;2023-04-03T06:12:25;3.10;;;1.57;;
2326;SDS011;1174;51.588;7.328;2023-04-03T06:14:53;3.53;;;1.20;;
2326;SDS011;1174;51.588;7.328;2023-04-03T06:17:20;2.90;;;1.90;;
2326;SDS011;1174;51.588;7.328;2023-04-03T06:19:48;1.53;;;1.00;;
2326;SDS011;1174;51.588;7.328;2023-04-03T06:22:18;1.50;;;1.17;;
2326;SDS011;1174;51.588;7.328;2023-04-03T06:24:47;2.60;;;1.57;;
2326;SDS011;1174;51.588;7.328;2023-04-03T06:27:15;3.73;;;1.90;;
2326;SDS011;1174;51.588;7.328;2023-04-03T06:29:41;15.27;;;1.47;;
2326;SDS011;1174;51.588;7.328;2023-04-03T06:32:10;2.37;;;1.33;;
2326;SDS011;1174;51.588;7.328;2023-04-03T06:34:37;2.60;;;1.53;;
2326;SDS011;1174;51.588;7.328;2023-04-03T06:37:04;1.50;;;1.30;;
2326;SDS011;1174;51.588;7.328;2023-04-03T06:39:36;2.03;;;1.23;;
2326;SDS011;1174;51.588;7.328;2023-04-03T06:42:05;2.27;;;1.43;;
2326;SDS011;1174;51.588;7.328;2023-04-03T06:44:31;3.10;;;1.40;;
2326;SDS011;1174;51.588;7.328;2023-04-03T06:46:59;1.40;;;1.10;;
2326;SDS011;1174;51.588;7.328;2023-04-03T06:49:26;1.50;;;0.90;;
2326;SDS011;1174;51.588;7.328;2023-04-03T06:51:54;2.17;;;1.37;;
2326;SDS011;1174;51.588;7.328;2023-04-03T06:54:21;3.23;;;2.17;;
2326;SDS011;1174;51.588;7.328;2023-04-03T06:56:48;4.63;;;1.60;;
2326;SDS011;1174;51.588;7.328;2023-04-03T06:59:17;2.20;;;1.60;;
2326;SDS011;1174;51.588;7.328;2023-04-03T07:01:46;1.27;;;1.10;;
2326;SDS011;1174;51.588;7.328;2023-04-03T07:04:14;3.07;;;1.50;;
2326;SDS011;1174;51.588;7.328;2023-04-03T07:06:41;1.60;;;1.40;;
2326;SDS011;1174;51.588;7.328;2023-04-03T07:09:08;2.50;;;2.20;;
2326;SDS011;1174;51.588;7.328;2023-04-03T07:11:35;5.00;;;1.77;;
2326;SDS011;1174;51.588;7.328;2023-04-03T07:14:03;4.07;;;1.87;;
2326;SDS011;1174;51.588;7.328;2023-04-03T07:16:32;2.27;;;1.47;;
2326;SDS011;1174;51.588;7.328;2023-04-03T07:18:59;2.27;;;0.90;;
2326;SDS011;1174;51.588;7.328;2023-04-03T07:21:26;3.27;;;1.50;;
2326;SDS011;1174;51.588;7.328;2023-04-03T07:23:54;1.07;;;0.80;;
2326;SDS011;1174;51.588;7.328;2023-04-03T07:26:21;1.60;;;1.40;;
2326;SDS011;1174;51.588;7.328;2023-04-03T07:28:48;3.67;;;1.93;;
2326;SDS011;1174;51.588;7.328;2023-04-03T07:31:16;2.90;;;2.00;;
2326;SDS011;1174;51.588;7.328;2023-04-03T07:33:45;2.33;;;1.57;;
2326;SDS011;1174;51.588;7.328;2023-04-03T07:36:14;5.37;;;2.00;;
2326;SDS011;1174;51.588;7.328;2023-04-03T07:38:43;2.57;;;0.93;;
2326;SDS011;1174;51.588;7.328;2023-04-03T07:41:10;4.47;;;1.43;;
2326;SDS011;1174;51.588;7.328;2023-04-03T07:43:40;1.00;;;0.70;;
2326;SDS011;1174;51.588;7.328;2023-04-03T07:46:07;2.10;;;1.63;;
2326;SDS011;1174;51.588;7.328;2023-04-03T07:48:38;1.40;;;1.10;;
2326;SDS011;1174;51.588;7.328;2023-04-03T07:51:06;2.20;;;1.30;;
2326;SDS011;1174;51.588;7.328;2023-04-03T07:53:33;2.73;;;1.57;;
2326;SDS011;1174;51.588;7.328;2023-04-03T07:56:00;4.57;;;1.90;;
2326;SDS011;1174;51.588;7.328;2023-04-03T07:58:28;1.20;;;1.10;;
2326;SDS011;1174;51.588;7.328;2023-04-03T08:00:56;3.23;;;2.20;;
2326;SDS011;1174;51.588;7.328;2023-04-03T08:03:22;1.93;;;1.53;;
2326;SDS011;1174;51.588;7.328;2023-04-03T08:05:50;1.90;;;1.43;;
2326;SDS011;1174;51.588;7.328;2023-04-03T08:08:20;2.27;;;1.80;;
2326;SDS011;1174;51.588;7.328;2023-04-03T08:10:49;2.63;;;1.40;;
2326;SDS011;1174;51.588;7.328;2023-04-03T08:13:16;5.23;;;1.87;;
2326;SDS011;1174;51.588;7.328;2023-04-03T08:15:43;3.10;;;1.20;;
2326;SDS011;1174;51.588;7.328;2023-04-03T08:18:10;3.53;;;1.40;;
2326;SDS011;1174;51.588;7.328;2023-04-03T08:20:37;1.30;;;1.00;;
2326;SDS011;1174;51.588;7.328;2023-04-03T08:23:05;6.97;;;1.27;;
2326;SDS011;1174;51.588;7.328;2023-04-03T08:25:33;1.00;;;0.80;;
2326;SDS011;1174;51.588;7.328;2023-04-03T08:28:03;1.80;;;1.10;;
2326;SDS011;1174;51.588;7.328;2023-04-03T08:30:30;5.17;;;1.73;;
2326;SDS011;1174;51.588;7.328;2023-04-03T08:32:59;1.63;;;1.30;;
2326;SDS011;1174;51.588;7.328;2023-04-03T08:35:26;3.77;;;3.47;;
2326;SDS011;1174;51.588;7.328;2023-04-03T08:37:54;2.67;;;1.07;;
2326;SDS011;1174;51.588;7.328;2023-04-03T08:40:21;1.70;;;1.60;;
2326;SDS011;1174;51.588;7.328;2023-04-03T08:42:53;1.77;;;1.10;;
2326;SDS011;1174;51.588;7.328;2023-04-03T08:45:31;8.00;;;1.60;;
2326;SDS011;1174;51.588;7.328;2023-04-03T08:48:11;2.13;;;1.00;;
2326;SDS011;1174;51.588;7.328;2023-04-03T08:50:41;1.57;;;1.10;;
2326;SDS011;1174;51.588;7.328;2023-04-03T08:53:12;10.30;;;3.07;;
2326;SDS011;1174;51.588;7.328;2023-04-03T08:55:42;4.90;;;1.40;;
2326;SDS011;1174;51.588;7.328;2023-04-03T08:58:15;3.23;;;1.23;;
2326;SDS011;1174;51.588;7.328;2023-04-03T09:00:45;1.40;;;1.20;;
2326;SDS011;1174;51.588;7.328;2023-04-03T09:03:15;2.57;;;1.60;;
2326;SDS011;1174;51.588;7.328;2023-04-03T09:05:45;1.50;;;1.20;;
2326;SDS011;1174;51.588;7.328;2023-04-03T09:08:18;2.43;;;0.90;;
2326;SDS011;1174;51.588;7.328;2023-04-03T09:10:49;1.40;;;1.00;;
2326;SDS011;1174;51.588;7.328;2023-04-03T09:13:26;1.40;;;0.90;;
2326;SDS011;1174;51.588;7.328;2023-04-03T09:16:02;2.03;;;1.23;;
2326;SDS011;1174;51.588;7.328;2023-04-03T09:18:37;1.20;;;0.80;;
2326;SDS011;1174;51.588;7.328;2023-04-03T09:21:13;1.10;;;0.80;;
2326;SDS011;1174;51.588;7.328;2023-04-03T09:23:46;2.00;;;1.00;;
2326;SDS011;1174;51.588;7.328;2023-04-03T09:26:18;3.53;;;1.67;;
2326;SDS011;1174;51.588;7.328;2023-04-03T09:28:51;2.00;;;1.40;;
2326;SDS011;1174;51.588;7.328;2023-04-03T09:31:21;1.00;;;0.70;;
2326;SDS011;1174;51.588;7.328;2023-04-03T09:33:53;5.50;;;1.70;;
2326;SDS011;1174;51.588;7.328;2023-04-03T09:39:10;2.13;;;1.20;;
2326;SDS011;1174;51.588;7.328;2023-04-03T09:41:39;3.00;;;1.30;;
2326;SDS011;1174;51.588;7.328;2023-04-03T09:44:20;2.13;;;1.30;;
2326;SDS011;1174;51.588;7.328;2023-04-03T09:46:51;1.10;;;0.80;;
2326;SDS011;1174;51.588;7.328;2023-04-03T09:49:18;1.60;;;0.90;;
2326;SDS011;1174;51.588;7.328;2023-04-03T09:51:46;1.93;;;0.90;;
2326;SDS011;1174;51.588;7.328;2023-04-03T09:54:34;1.60;;;1.10;;
2326;SDS011;1174;51.588;7.328;2023-04-03T09:57:06;2.00;;;1.10;;
2326;SDS011;1174;51.588;7.328;2023-04-03T09:59:39;1.80;;;1.37;;
2326;SDS011;1174;51.588;7.328;2023-04-03T10:02:28;1.50;;;1.00;;
2326;SDS011;1174;51.588;7.328;2023-04-03T10:05:01;1.10;;;0.73;;
2326;SDS011;1174;51.588;7.328;2023-04-03T10:07:32;1.10;;;0.80;;
2326;SDS011;1174;51.588;7.328;2023-04-03T10:10:01;1.73;;;1.03;;
2326;SDS011;1174;51.588;7.328;2023-04-03T10:12:42;1.53;;;1.07;;
2326;SDS011;1174;51.588;7.328;2023-04-03T10:15:12;1.33;;;0.90;;
2326;SDS011;1174;51.588;7.328;2023-04-03T10:17:46;2.70;;;2.30;;
2326;SDS011;1174;51.588;7.328;2023-04-03T10:20:22;2.50;;;1.77;;
2326;SDS011;1174;51.588;7.328;2023-04-03T10:23:00;1.63;;;1.30;;
2326;SDS011;1174;51.588;7.328;2023-04-03T10:25:37;1.10;;;0.70;;
2326;SDS011;1174;51.588;7.328;2023-04-03T10:28:09;3.60;;;1.27;;
2326;SDS011;1174;51.588;7.328;2023-04-03T10:30:46;1.93;;;1.10;;
2326;SDS011;1174;51.588;7.328;2023-04-03T10:33:31;5.53;;;1.37;;
2326;SDS011;1174;51.588;7.328;2023-04-03T10:36:07;1.50;;;1.07;;
2326;SDS011;1174;51.588;7.328;2023-04-03T10:38:43;2.50;;;1.60;;
2326;SDS011;1174;51.588;7.328;2023-04-03T10:41:18;1.90;;;1.10;;
2326;SDS011;1174;51.588;7.328;2023-04-03T10:43:56;1.10;;;0.80;;
2326;SDS011;1174;51.588;7.328;2023-04-03T10:46:35;1.10;;;0.80;;
2326;SDS011;1174;51.588;7.328;2023-04-03T10:49:17;1.10;;;0.90;;
2326;SDS011;1174;51.588;7.328;2023-04-03T10:51:57;1.20;;;0.80;;
2326;SDS011;1174;51.588;7.328;2023-04-03T10:54:31;1.30;;;0.90;;
2326;SDS011;1174;51.588;7.328;2023-04-03T10:57:03;1.80;;;1.10;;
2326;SDS011;1174;51.588;7.328;2023-04-03T10:59:32;1.47;;;0.90;;
2326;SDS011;1174;51.588;7.328;2023-04-03T11:02:06;1.23;;;0.80;;
2326;SDS011;1174;51.588;7.328;2023-04-03T11:04:40;2.07;;;1.70;;
2326;SDS011;1174;51.588;7.328;2023-04-03T11:07:12;1.90;;;1.30;;
2326;SDS011;1174;51.588;7.328;2023-04-03T11:09:44;1.13;;;0.83;;
2326;SDS011;1174;51.588;7.328;2023-04-03T11:12:15;2.63;;;1.07;;
2326;SDS011;1174;51.588;7.328;2023-04-03T11:14:50;1.33;;;0.90;;
2326;SDS011;1174;51.588;7.328;2023-04-03T11:17:26;3.40;;;1.03;;
2326;SDS011;1174;51.588;7.328;2023-04-03T11:20:01;1.23;;;1.13;;
2326;SDS011;1174;51.588;7.328;2023-04-03T11:22:35;2.07;;;1.00;;
2326;SDS011;1174;51.588;7.328;2023-04-03T11:25:08;1.00;;;0.70;;
2326;SDS011;1174;51.588;7.328;2023-04-03T11:27:47;1.40;;;0.90;;
2326;SDS011;1174;51.588;7.328;2023-04-03T11:30:18;1.07;;;0.73;;
2326;SDS011;1174;51.588;7.328;2023-04-03T11:32:56;3.43;;;0.90;;
2326;SDS011;1174;51.588;7.328;2023-04-03T11:35:42;3.03;;;0.97;;
2326;SDS011;1174;51.588;7.328;2023-04-03T11:38:13;2.23;;;1.10;;
2326;SDS011;1174;51.588;7.328;2023-04-03T11:40:47;1.30;;;1.17;;
2326;SDS011;1174;51.588;7.328;2023-04-03T11:43:21;2.03;;;1.00;;
2326;SDS011;1174;51.588;7.328;2023-04-03T11:45:55;5.33;;;1.10;;
2326;SDS011;1174;51.588;7.328;2023-04-03T11:48:51;21.73;;;2.50;;
2326;SDS011;1174;51.588;7.328;2023-04-03T12:03:30;2.47;;;1.87;;
2326;SDS011;1174;51.588;7.328;2023-04-03T12:09:10;1.57;;;1.10;;
2326;SDS011;1174;51.588;7.328;2023-04-03T12:11:51;1.40;;;1.30;;
2326;SDS011;1174;51.588;7.328;2023-04-03T12:14:18;1.00;;;0.67;;
2326;SDS011;1174;51.588;7.328;2023-04-03T12:16:50;1.53;;;1.10;;
2326;SDS011;1174;51.588;7.328;2023-04-03T12:19:32;1.20;;;0.90;;
2326;SDS011;1174;51.588;7.328;2023-04-03T12:22:08;1.20;;;0.80;;
2326;SDS011;1174;51.588;7.328;2023-04-03T12:24:42;4.03;;;1.10;;
2326;SDS011;1174;51.588;7.328;2023-04-03T12:32:55;1.50;;;0.90;;
2326;SDS011;1174;51.588;7.328;2023-04-03T12:35:31;2.40;;;1.10;;
2326;SDS011;1174;51.588;7.328;2023-04-03T12:38:14;2.50;;;1.20;;
2326;SDS011;1174;51.588;7.328;2023-04-03T12:41:01;1.10;;;0.80;;
2326;SDS011;1174;51.588;7.328;2023-04-03T12:43:43;2.33;;;0.90;;
2326;SDS011;1174;51.588;7.328;2023-04-03T12:46:23;1.00;;;0.70;;
2326;SDS011;1174;51.588;7.328;2023-04-03T12:48:53;2.50;;;1.53;;
2326;SDS011;1174;51.588;7.328;2023-04-03T12:51:22;6.80;;;1.20;;
2326;SDS011;1174;51.588;7.328;2023-04-03T12:53:56;1.20;;;0.80;;
2326;SDS011;1174;51.588;7.328;2023-04-03T12:56:29;1.87;;;1.37;;
2326;SDS011;1174;51.588;7.328;2023-04-03T12:59:12;2.67;;;1.20;;
2326;SDS011;1174;51.588;7.328;2023-04-03T13:01:41;1.20;;;1.00;;
2326;SDS011;1174;51.588;7.328;2023-04-03T13:04:09;1.20;;;0.90;;
2326;SDS011;1174;51.588;7.328;2023-04-03T13:06:39;1.30;;;0.77;;
2326;SDS011;1174;51.588;7.328;2023-04-03T13:09:14;1.97;;;0.80;;
2326;SDS011;1174;51.588;7.328;2023-04-03T13:11:49;4.70;;;1.20;;
2326;SDS011;1174;51.588;7.328;2023-04-03T13:14:22;1.10;;;0.80;;
2326;SDS011;1174;51.588;7.328;2023-04-03T13:16:54;1.87;;;1.27;;
2326;SDS011;1174;51.588;7.328;2023-04-03T13:19:23;1.20;;;0.80;;
2326;SDS011;1174;51.588;7.328;2023-04-03T13:21:55;6.10;;;1.67;;
2326;SDS011;1174;51.588;7.328;2023-04-03T13:24:26;6.93;;;1.17;;
2326;SDS011;1174;51.588;7.328;2023-04-03T13:26:56;1.83;;;0.90;;
2326;SDS011;1174;51.588;7.328;2023-04-03T13:29:27;1.50;;;1.07;;
2326;SDS011;1174;51.588;7.328;2023-04-03T13:31:56;1.93;;;0.90;;
2326;SDS011;1174;51.588;7.328;2023-04-03T13:34:26;1.50;;;1.40;;
2326;SDS011;1174;51.588;7.328;2023-04-03T13:36:57;1.30;;;1.07;;
2326;SDS011;1174;51.588;7.328;2023-04-03T13:39:26;1.93;;;0.83;;
2326;SDS011;1174;51.588;7.328;2023-04-03T13:41:55;1.10;;;0.90;;
2326;SDS011;1174;51.588;7.328;2023-04-03T13:44:28;2.37;;;1.43;;
2326;SDS011;1174;51.588;7.328;2023-04-03T13:47:00;2.13;;;0.90;;
2326;SDS011;1174;51.588;7.328;2023-04-03T13:49:41;1.60;;;1.50;;
2326;SDS011;1174;51.588;7.328;2023-04-03T13:52:24;4.03;;;1.00;;
2326;SDS011;1174;51.588;7.328;2023-04-03T13:54:55;3.83;;;1.40;;
2326;SDS011;1174;51.588;7.328;2023-04-03T13:57:24;1.43;;;1.10;;
2326;SDS011;1174;51.588;7.328;2023-04-03T13:59:51;6.23;;;1.30;;
2326;SDS011;1174;51.588;7.328;2023-04-03T14:02:19;1.50;;;0.90;;
2326;SDS011;1174;51.588;7.328;2023-04-03T14:04:50;5.87;;;1.47;;
2326;SDS011;1174;51.588;7.328;2023-04-03T14:07:21;1.97;;;1.63;;
2326;SDS011;1174;51.588;7.328;2023-04-03T14:09:49;2.60;;;1.13;;
2326;SDS011;1174;51.588;7.328;2023-04-03T14:12:17;2.07;;;1.23;;
2326;SDS011;1174;51.588;7.328;2023-04-03T14:14:49;1.77;;;1.13;;
2326;SDS011;1174;51.588;7.328;2023-04-03T14:17:16;2.47;;;1.07;;
2326;SDS011;1174;51.588;7.328;2023-04-03T14:19:46;3.20;;;1.17;;
2326;SDS011;1174;51.588;7.328;2023-04-03T14:22:15;1.30;;;0.97;;
2326;SDS011;1174;51.588;7.328;2023-04-03T14:24:43;3.47;;;1.13;;
2326;SDS011;1174;51.588;7.328;2023-04-03T14:27:14;1.27;;;1.07;;
2326;SDS011;1174;51.588;7.328;2023-04-03T14:29:44;2.80;;;1.10;;
2326;SDS011;1174;51.588;7.328;2023-04-03T14:32:13;1.30;;;1.00;;
2326;SDS011;1174;51.588;7.328;2023-04-03T14:34:41;1.40;;;1.30;;
2326;SDS011;1174;51.588;7.328;2023-04-03T14:37:09;8.40;;;1.90;;
2326;SDS011;1174;51.588;7.328;2023-04-03T14:39:38;2.07;;;1.40;;
2326;SDS011;1174;51.588;7.328;2023-04-03T14:42:05;1.60;;;1.23;;
2326;SDS011;1174;51.588;7.328;2023-04-03T14:44:32;1.40;;;1.03;;
2326;SDS011;1174;51.588;7.328;2023-04-03T14:46:59;2.30;;;1.40;;
2326;SDS011;1174;51.588;7.328;2023-04-03T14:49:29;1.13;;;1.00;;
2326;SDS011;1174;51.588;7.328;2023-04-03T14:51:56;2.07;;;1.00;;
2326;SDS011;1174;51.588;7.328;2023-04-03T14:54:24;1.23;;;0.90;;
2326;SDS011;1174;51.588;7.328;2023-04-03T14:56:52;3.57;;;1.13;;
2326;SDS011;1174;51.588;7.328;2023-04-03T14:59:23;1.07;;;0.80;;
2326;SDS011;1174;51.588;7.328;2023-04-03T15:01:51;1.20;;;0.90;;
2326;SDS011;1174;51.588;7.328;2023-04-03T15:04:18;3.70;;;1.77;;
2326;SDS011;1174;51.588;7.328;2023-04-03T15:06:48;1.37;;;0.97;;
2326;SDS011;1174;51.588;7.328;2023-04-03T15:09:18;1.07;;;0.80;;
2326;SDS011;1174;51.588;7.328;2023-04-03T15:11:47;6.50;;;1.00;;
2326;SDS011;1174;51.588;7.328;2023-04-03T15:14:15;1.10;;;0.90;;
2326;SDS011;1174;51.588;7.328;2023-04-03T15:16:43;2.17;;;1.37;;
2326;SDS011;1174;51.588;7.328;2023-04-03T15:19:11;1.00;;;0.80;;
2326;SDS011;1174;51.588;7.328;2023-04-03T15:21:39;3.40;;;1.73;;
2326;SDS011;1174;51.588;7.328;2023-04-03T15:24:08;1.30;;;1.00;;
2326;SDS011;1174;51.588;7.328;2023-04-03T15:26:36;1.60;;;1.10;;
2326;SDS011;1174;51.588;7.328;2023-04-03T15:29:03;2.80;;;1.23;;
2326;SDS011;1174;51.588;7.328;2023-04-03T15:31:30;2.90;;;2.70;;
2326;SDS011;1174;51.588;7.328;2023-04-03T15:33:57;2.17;;;0.90;;
2326;SDS011;1174;51.588;7.328;2023-04-03T15:36:24;1.40;;;1.10;;
2326;SDS011;1174;51.588;7.328;2023-04-03T15:38:51;1.20;;;1.10;;
2326;SDS011;1174;51.588;7.328;2023-04-03T15:41:20;1.10;;;0.80;;
2326;SDS011;1174;51.588;7.328;2023-04-03T15:43:47;1.00;;;0.80;;
2326;SDS011;1174;51.588;7.328;2023-04-03T15:46:15;5.03;;;1.57;;
2326;SDS011;1174;51.588;7.328;2023-04-03T15:48:42;2.23;;;1.40;;
2326;SDS011;1174;51.588;7.328;2023-04-03T15:51:10;1.87;;;1.60;;
2326;SDS011;1174;51.588;7.328;2023-04-03T15:53:37;1.37;;;0.93;;
2326;SDS011;1174;51.588;7.328;2023-04-03T15:56:04;2.57;;;1.17;;